Time;durP1;ratioP1;P1;durP2;ratioP2;P2;SDS_P1;SDS_P2;PMS_P1;PMS_P2;Temp;Humidity;BMP_temperature;BMP_pressure;BME280_temperature;BME280_humidity;BME280_pressure;Samples;Min_cycle;Max_cycle;Signal;HPM_P1;HPM_P2
2024/03/08 00:00:14;;;;;;;;;50.25;40.25;;;;;;;;5013495;28;45261;-81
2024/03/08 00:02:39;;;;;;;;;43.50;36.50;;;;;;;;5028997;28;45250;-82
2024/03/08 00:05:05;;;;;;;;;52.75;43.00;;;;;;;;5034550;28;45357;-81
2024/03/08 00:07:30;;;;;;;;;41.25;36.50;;;;;;;;5008691;28;47062;-81
2024/03/08 00:09:56;;;;;;;;;49.00;41.00;;;;;;;;5026459;28;45251;-82
2024/03/08 00:12:25;;;;;;;;;52.00;39.50;;;;;;;;5015692;28;45491;-82
2024/03/08 00:14:50;;;;;;;;;45.00;38.75;;;;;;;;5034871;28;45269;-82
2024/03/08 00:17:16;;;;;;;;;46.75;39.00;;;;;;;;5010765;28;47746;-82
2024/03/08 00:19:41;;;;;;;;;47.50;40.50;;;;;;;;5032823;28;45299;-82
2024/03/08 00:22:07;;;;;;;;;50.25;40.25;;;;;;;;5036693;28;45603;-81
2024/03/08 00:24:32;;;;;;;;;48.50;40.00;;;;;;;;5030544;28;45392;-80
2024/03/08 00:26:58;;;;;;;;;42.75;37.00;;;;;;;;5036283;28;45475;-81
2024/03/08 00:29:23;;;;;;;;;46.50;36.50;;;;;;;;5013112;28;45471;-81
2024/03/08 00:31:49;;;;;;;;;40.50;35.50;;;;;;;;5010333;28;45257;-81
2024/03/08 00:34:14;;;;;;;;;53.00;41.75;;;;;;;;5034892;28;45333;-81
2024/03/08 00:36:39;;;;;;;;;51.50;40.75;;;;;;;;5028004;28;46596;-81
2024/03/08 00:39:07;;;;;;;;;51.75;42.25;;;;;;;;5029198;28;45398;-82
2024/03/08 00:41:33;;;;;;;;;54.00;40.75;;;;;;;;5009688;28;45257;-81
2024/03/08 00:43:58;;;;;;;;;44.50;39.50;;;;;;;;5029782;28;45416;-82
2024/03/08 00:46:23;;;;;;;;;41.00;35.00;;;;;;;;5030573;28;45327;-81
2024/03/08 00:48:49;;;;;;;;;50.50;41.00;;;;;;;;5026788;28;45270;-82
2024/03/08 00:51:15;;;;;;;;;43.50;38.00;;;;;;;;5015060;28;45326;-81
2024/03/08 00:53:40;;;;;;;;;48.50;39.00;;;;;;;;5017429;28;46168;-81
2024/03/08 00:56:05;;;;;;;;;47.50;38.75;;;;;;;;5013197;28;45339;-82
2024/03/08 00:58:30;;;;;;;;;50.75;41.00;;;;;;;;5008094;28;45361;-82
2024/03/08 01:00:57;;;;;;;;;46.50;36.50;;;;;;;;5008862;28;45441;-81
2024/03/08 01:03:22;;;;;;;;;54.50;40.50;;;;;;;;4993124;28;46144;-81
2024/03/08 01:05:47;;;;;;;;;51.50;41.75;;;;;;;;5008472;28;46600;-82
2024/03/08 01:08:12;;;;;;;;;47.00;39.75;;;;;;;;5014679;28;45316;-81
2024/03/08 01:10:37;;;;;;;;;43.00;37.25;;;;;;;;5011748;28;45321;-81
2024/03/08 01:13:03;;;;;;;;;51.00;40.25;;;;;;;;5010484;28;45504;-81
2024/03/08 01:15:28;;;;;;;;;42.00;36.75;;;;;;;;4991723;28;47822;-82
2024/03/08 01:17:54;;;;;;;;;44.25;37.75;;;;;;;;4992642;28;45357;-82
2024/03/08 01:20:19;;;;;;;;;47.00;38.50;;;;;;;;5014672;28;45299;-82
2024/03/08 01:22:44;;;;;;;;;45.25;37.25;;;;;;;;5003356;28;45396;-82
2024/03/08 01:25:09;;;;;;;;;46.25;38.50;;;;;;;;4996636;28;47165;-81
2024/03/08 01:27:35;;;;;;;;;51.25;41.50;;;;;;;;5013356;28;45438;-82
2024/03/08 01:30:00;;;;;;;;;45.75;40.50;;;;;;;;4996878;28;45338;-82
2024/03/08 01:32:25;;;;;;;;;51.75;42.00;;;;;;;;5011243;28;45302;-82
2024/03/08 01:34:50;;;;;;;;;49.25;39.75;;;;;;;;4990596;28;47256;-81
2024/03/08 01:37:16;;;;;;;;;20.50;16.50;;;;;;;;5004546;28;45214;-81
2024/03/08 01:39:41;;;;;;;;;52.00;41.00;;;;;;;;4986769;28;45231;-82
2024/03/08 01:42:06;;;;;;;;;51.25;41.50;;;;;;;;5009891;28;45360;-81
2024/03/08 01:44:31;;;;;;;;;47.50;39.50;;;;;;;;4990339;28;47079;-82
2024/03/08 01:46:56;;;;;;;;;52.25;40.50;;;;;;;;4988712;28;45355;-81
2024/03/08 01:49:22;;;;;;;;;47.50;38.00;;;;;;;;4991006;28;45326;-81
2024/03/08 01:51:48;;;;;;;;;51.00;41.50;;;;;;;;5004334;28;45570;-81
2024/03/08 01:54:15;;;;;;;;;46.00;37.50;;;;;;;;4987951;28;47651;-82
2024/03/08 01:56:40;;;;;;;;;51.50;41.50;;;;;;;;5010407;28;45355;-81
2024/03/08 01:59:07;;;;;;;;;52.25;40.75;;;;;;;;5008629;28;45274;-81
2024/03/08 02:01:33;;;;;;;;;42.50;38.00;;;;;;;;5026104;28;45296;-82
2024/03/08 02:03:58;;;;;;;;;50.75;40.00;;;;;;;;5006553;28;47962;-82
2024/03/08 02:06:23;;;;;;;;;52.25;43.75;;;;;;;;5028855;28;45322;-82
2024/03/08 02:08:49;;;;;;;;;50.50;43.00;;;;;;;;5028506;28;45190;-82
2024/03/08 02:11:15;;;;;;;;;47.25;40.00;;;;;;;;5028318;28;45280;-81
2024/03/08 02:13:41;;;;;;;;;48.25;41.00;;;;;;;;5027549;28;45237;-81
2024/03/08 02:16:07;;;;;;;;;55.25;43.25;;;;;;;;5027484;28;45372;-81
2024/03/08 02:18:34;;;;;;;;;52.75;44.00;;;;;;;;5007692;28;45412;-81
2024/03/08 02:21:00;;;;;;;;;47.75;39.50;;;;;;;;5007855;28;46995;-81
2024/03/08 02:23:26;;;;;;;;;45.75;40.50;;;;;;;;5025888;28;45352;-81
2024/03/08 02:25:53;;;;;;;;;50.50;39.25;;;;;;;;5012351;28;45869;-82
2024/03/08 02:28:18;;;;;;;;;53.25;42.00;;;;;;;;5009775;28;45264;-82
2024/03/08 02:30:43;;;;;;;;;48.00;39.75;;;;;;;;5002202;28;47365;-82
2024/03/08 02:33:12;;;;;;;;;50.25;42.00;;;;;;;;5024949;28;45564;-81
2024/03/08 02:35:37;;;;;;;;;50.25;40.00;;;;;;;;5028188;28;45372;-82
2024/03/08 02:38:03;;;;;;;;;55.75;43.25;;;;;;;;4985948;28;45312;-82
2024/03/08 02:40:29;;;;;;;;;46.25;39.50;;;;;;;;5012470;28;45369;-82
2024/03/08 02:42:54;;;;;;;;;42.75;37.00;;;;;;;;5009881;28;45345;-81
2024/03/08 02:45:20;;;;;;;;;37.00;33.25;;;;;;;;5006266;28;45372;-82
2024/03/08 02:47:45;;;;;;;;;49.75;39.25;;;;;;;;5010700;28;45321;-81
2024/03/08 02:50:11;;;;;;;;;43.00;38.00;;;;;;;;5012990;28;45245;-81
2024/03/08 02:52:37;;;;;;;;;51.00;40.00;;;;;;;;4984837;28;47182;-82
2024/03/08 02:55:02;;;;;;;;;45.25;36.75;;;;;;;;5006954;28;45344;-82
2024/03/08 02:57:27;;;;;;;;;43.25;39.25;;;;;;;;5020813;28;45391;-82
2024/03/08 02:59:55;;;;;;;;;44.75;37.00;;;;;;;;5011883;28;47233;-82
2024/03/08 03:02:23;;;;;;;;;45.25;38.00;;;;;;;;5029972;28;46576;-81
2024/03/08 03:04:48;;;;;;;;;43.50;38.00;;;;;;;;5027686;28;45360;-81
2024/03/08 03:07:13;;;;;;;;;46.75;37.50;;;;;;;;5006083;28;45383;-82
2024/03/08 03:09:38;;;;;;;;;40.25;36.50;;;;;;;;5026024;28;45526;-82
2024/03/08 03:12:04;;;;;;;;;51.00;41.25;;;;;;;;5027280;28;46042;-81
2024/03/08 03:14:29;;;;;;;;;46.25;39.50;;;;;;;;5007848;28;45860;-82
2024/03/08 03:16:54;;;;;;;;;51.00;37.75;;;;;;;;5011370;28;45360;-81
2024/03/08 03:19:19;;;;;;;;;44.25;38.25;;;;;;;;5029707;28;45727;-81
2024/03/08 03:21:45;;;;;;;;;45.00;37.75;;;;;;;;5027472;28;46802;-82
2024/03/08 03:24:10;;;;;;;;;42.25;36.50;;;;;;;;5026335;28;45428;-81
2024/03/08 03:26:38;;;;;;;;;46.00;37.75;;;;;;;;5013078;28;45342;-81
2024/03/08 03:29:05;;;;;;;;;42.75;37.75;;;;;;;;5010996;28;46141;-81
2024/03/08 03:31:31;;;;;;;;;45.25;37.50;;;;;;;;5015280;28;47318;-81
2024/03/08 03:34:01;;;;;;;;;44.75;36.50;;;;;;;;5031041;28;45507;-81
2024/03/08 03:36:27;;;;;;;;;49.25;41.50;;;;;;;;5025318;28;45329;-82
2024/03/08 03:39:04;;;;;;;;;46.50;37.25;;;;;;;;5028747;28;45292;-81
2024/03/08 03:41:29;;;;;;;;;46.50;40.00;;;;;;;;5011954;28;47222;-81
2024/03/08 03:43:54;;;;;;;;;46.25;39.75;;;;;;;;5010942;28;45313;-81
2024/03/08 03:46:19;;;;;;;;;47.25;37.50;;;;;;;;5031471;28;45392;-82
2024/03/08 03:48:45;;;;;;;;;31.75;27.50;;;;;;;;5030530;28;45585;-81
2024/03/08 03:51:10;;;;;;;;;52.50;39.00;;;;;;;;5029834;28;45340;-82
2024/03/08 03:53:35;;;;;;;;;41.75;37.00;;;;;;;;5027680;28;45427;-82
2024/03/08 03:56:00;;;;;;;;;48.50;40.50;;;;;;;;5031546;28;45285;-82
2024/03/08 03:58:26;;;;;;;;;44.75;38.25;;;;;;;;5007397;28;45231;-81
2024/03/08 04:00:51;;;;;;;;;46.25;38.75;;;;;;;;5008099;28;46670;-81
2024/03/08 04:03:17;;;;;;;;;42.50;36.25;;;;;;;;5012142;28;45352;-82
2024/03/08 04:05:42;;;;;;;;;35.50;30.25;;;;;;;;4994263;28;45559;-81
2024/03/08 04:08:07;;;;;;;;;50.75;41.00;;;;;;;;5012186;28;45482;-82
2024/03/08 04:10:32;;;;;;;;;49.75;39.50;;;;;;;;4996184;28;46993;-82
2024/03/08 04:12:58;;;;;;;;;42.75;37.75;;;;;;;;5013314;28;45410;-81
2024/03/08 04:15:23;;;;;;;;;45.25;39.25;;;;;;;;5008640;28;45344;-82
2024/03/08 04:17:48;;;;;;;;;51.25;41.50;;;;;;;;4988382;28;46834;-82
2024/03/08 04:20:14;;;;;;;;;52.00;42.00;;;;;;;;4985859;28;47316;-81
2024/03/08 04:22:39;;;;;;;;;44.75;37.25;;;;;;;;4988282;28;45338;-81
2024/03/08 04:25:05;;;;;;;;;46.00;39.75;;;;;;;;5014266;28;45621;-82
2024/03/08 04:27:32;;;;;;;;;49.75;38.50;;;;;;;;5014185;28;45375;-81
2024/03/08 04:29:58;;;;;;;;;36.00;30.00;;;;;;;;5014050;28;46052;-81
2024/03/08 04:32:23;;;;;;;;;47.25;40.00;;;;;;;;5009886;28;45331;-81
2024/03/08 04:34:49;;;;;;;;;44.75;38.25;;;;;;;;5011160;28;45605;-81
2024/03/08 04:37:14;;;;;;;;;37.00;33.25;;;;;;;;5012262;28;45343;-81
2024/03/08 04:39:39;;;;;;;;;46.50;40.00;;;;;;;;5012638;28;45333;-81
2024/03/08 04:42:06;;;;;;;;;47.25;39.00;;;;;;;;4996364;28;45227;-81
2024/03/08 04:44:33;;;;;;;;;47.25;38.00;;;;;;;;4993258;28;45380;-82
2024/03/08 04:46:58;;;;;;;;;50.75;41.50;;;;;;;;5012388;28;45312;-82
2024/03/08 04:49:23;;;;;;;;;52.25;41.00;;;;;;;;5012316;28;46305;-81
2024/03/08 04:51:48;;;;;;;;;50.75;40.25;;;;;;;;4988194;28;45336;-82
2024/03/08 04:54:14;;;;;;;;;52.00;41.00;;;;;;;;5007887;28;45643;-82
2024/03/08 04:56:39;;;;;;;;;51.75;41.50;;;;;;;;4990546;28;47284;-82
2024/03/08 04:59:08;;;;;;;;;43.25;38.25;;;;;;;;5031773;28;45402;-81
2024/03/08 05:01:33;;;;;;;;;45.25;39.00;;;;;;;;5013568;28;45274;-81
2024/03/08 05:03:59;;;;;;;;;43.75;38.00;;;;;;;;5029438;28;45412;-81
2024/03/08 05:06:24;;;;;;;;;44.75;38.25;;;;;;;;5032791;28;45428;-81
2024/03/08 05:08:49;;;;;;;;;48.75;38.50;;;;;;;;5033853;28;46636;-82
2024/03/08 05:11:14;;;;;;;;;46.25;38.00;;;;;;;;5034412;28;45345;-81
2024/03/08 05:13:40;;;;;;;;;47.75;38.50;;;;;;;;5031983;28;45263;-81
2024/03/08 05:16:07;;;;;;;;;47.25;40.00;;;;;;;;5025162;28;45345;-82
2024/03/08 05:18:32;;;;;;;;;53.25;41.75;;;;;;;;5013614;28;48188;-81
2024/03/08 05:20:57;;;;;;;;;46.25;39.25;;;;;;;;5035789;28;45295;-81
2024/03/08 05:23:22;;;;;;;;;52.75;39.00;;;;;;;;5033689;28;45324;-81
2024/03/08 05:25:48;;;;;;;;;57.00;43.75;;;;;;;;5006230;28;46028;-82
2024/03/08 05:28:13;;;;;;;;;52.75;43.00;;;;;;;;5003111;28;46423;-81
2024/03/08 05:30:38;;;;;;;;;47.50;40.25;;;;;;;;4994491;28;45330;-81
2024/03/08 05:33:03;;;;;;;;;45.25;39.50;;;;;;;;4996741;28;45297;-81
2024/03/08 05:35:29;;;;;;;;;43.00;37.25;;;;;;;;5009336;28;45333;-82
2024/03/08 05:37:54;;;;;;;;;40.00;36.25;;;;;;;;5015110;28;45363;-82
2024/03/08 05:40:19;;;;;;;;;49.75;41.50;;;;;;;;4997142;28;45339;-81
2024/03/08 05:42:44;;;;;;;;;52.75;41.75;;;;;;;;5015162;28;45408;-81
2024/03/08 05:45:10;;;;;;;;;44.75;39.00;;;;;;;;5013020;28;45250;-81
2024/03/08 05:47:36;;;;;;;;;48.25;39.25;;;;;;;;5016354;28;45527;-81
2024/03/08 05:50:01;;;;;;;;;44.25;38.75;;;;;;;;4997178;28;45379;-81
2024/03/08 05:52:26;;;;;;;;;36.25;32.50;;;;;;;;5006847;28;45356;-82
2024/03/08 05:54:52;;;;;;;;;48.00;37.50;;;;;;;;5015855;28;45325;-81
2024/03/08 05:57:17;;;;;;;;;52.00;40.00;;;;;;;;5021615;28;45345;-81
2024/03/08 05:59:42;;;;;;;;;49.00;40.75;;;;;;;;5033829;28;45182;-81
2024/03/08 06:02:07;;;;;;;;;53.00;38.50;;;;;;;;5035792;28;44683;-81
2024/03/08 06:04:33;;;;;;;;;45.75;36.50;;;;;;;;4994906;28;46197;-81
2024/03/08 06:06:58;;;;;;;;;54.00;43.75;;;;;;;;4990274;28;47145;-81
2024/03/08 06:09:24;;;;;;;;;48.25;40.00;;;;;;;;4997367;28;45373;-81
2024/03/08 06:11:49;;;;;;;;;42.25;36.50;;;;;;;;4997782;28;45195;-81
2024/03/08 06:14:18;;;;;;;;;40.00;34.25;;;;;;;;5020413;28;45161;-81
2024/03/08 06:16:43;;;;;;;;;52.25;41.25;;;;;;;;5018589;28;45312;-81
2024/03/08 06:19:09;;;;;;;;;48.50;37.25;;;;;;;;5000208;28;45908;-81
2024/03/08 06:21:34;;;;;;;;;44.75;39.25;;;;;;;;4992930;28;45608;-81
2024/03/08 06:23:59;;;;;;;;;49.75;38.75;;;;;;;;4998674;28;46101;-81
2024/03/08 06:26:25;;;;;;;;;44.25;35.75;;;;;;;;5016233;28;45340;-81
2024/03/08 06:28:50;;;;;;;;;41.50;35.75;;;;;;;;4998468;28;45862;-81
2024/03/08 06:31:16;;;;;;;;;46.50;35.00;;;;;;;;4998241;28;45698;-82
2024/03/08 06:33:41;;;;;;;;;41.50;38.25;;;;;;;;5011160;28;45360;-81
2024/03/08 06:36:06;;;;;;;;;41.50;34.25;;;;;;;;5013973;28;45452;-82
2024/03/08 06:38:32;;;;;;;;;48.00;36.75;;;;;;;;4994713;28;45397;-82
2024/03/08 06:40:57;;;;;;;;;45.50;38.75;;;;;;;;5011757;28;45391;-83
2024/03/08 06:43:24;;;;;;;;;50.00;39.50;;;;;;;;5003057;28;45206;-84
2024/03/08 06:45:50;;;;;;;;;50.00;42.00;;;;;;;;5007048;28;46156;-83
2024/03/08 06:48:16;;;;;;;;;45.00;38.75;;;;;;;;5011295;28;45455;-82
2024/03/08 06:50:42;;;;;;;;;54.25;41.75;;;;;;;;4991455;28;45377;-81
2024/03/08 06:53:07;;;;;;;;;50.75;41.75;;;;;;;;4994473;28;46005;-82
2024/03/08 06:55:32;;;;;;;;;47.50;37.75;;;;;;;;5014730;28;46515;-82
2024/03/08 06:57:58;;;;;;;;;34.50;32.25;;;;;;;;4993288;28;45359;-82
2024/03/08 07:00:26;;;;;;;;;48.75;39.75;;;;;;;;4987726;28;45388;-83
2024/03/08 07:02:53;;;;;;;;;47.50;39.25;;;;;;;;4987203;28;45452;-82
2024/03/08 07:05:18;;;;;;;;;52.50;37.75;;;;;;;;4974206;28;48248;-83
2024/03/08 07:07:44;;;;;;;;;49.75;40.00;;;;;;;;4983904;28;45211;-83
2024/03/08 07:10:10;;;;;;;;;49.25;41.00;;;;;;;;4974712;28;45187;-83
2024/03/08 07:12:36;;;;;;;;;43.75;36.50;;;;;;;;4987717;28;45279;-83
2024/03/08 07:15:01;;;;;;;;;47.75;37.25;;;;;;;;4983880;28;45624;-84
2024/03/08 07:17:26;;;;;;;;;51.75;41.75;;;;;;;;4999857;28;46595;-81
2024/03/08 07:19:52;;;;;;;;;42.00;35.50;;;;;;;;4983678;28;45606;-82
2024/03/08 07:22:17;;;;;;;;;43.25;36.25;;;;;;;;4982975;28;46114;-82
2024/03/08 07:27:19;;;;;;;;;45.00;40.00;;;;;;;;5001498;28;45297;-82
2024/03/08 07:29:45;;;;;;;;;53.75;41.50;;;;;;;;5001965;28;45268;-82
2024/03/08 07:32:24;;;;;;;;;51.50;39.25;;;;;;;;5001711;28;45406;-83
2024/03/08 07:34:51;;;;;;;;;44.50;38.25;;;;;;;;5023797;28;46609;-81
2024/03/08 07:37:17;;;;;;;;;42.75;37.00;;;;;;;;5003647;28;45373;-79
2024/03/08 07:39:43;;;;;;;;;42.75;36.50;;;;;;;;5021103;28;45525;-82
2024/03/08 07:42:08;;;;;;;;;53.75;42.75;;;;;;;;4985576;28;46910;-77
2024/03/08 07:44:33;;;;;;;;;50.25;41.50;;;;;;;;5001694;28;45584;-78
2024/03/08 07:46:59;;;;;;;;;40.50;34.00;;;;;;;;5003338;28;45504;-78
2024/03/08 07:49:24;;;;;;;;;52.50;39.75;;;;;;;;5001807;28;45348;-78
2024/03/08 07:51:49;;;;;;;;;47.25;38.25;;;;;;;;5003849;28;45420;-78
2024/03/08 07:54:15;;;;;;;;;51.25;40.00;;;;;;;;5002066;28;46171;-78
2024/03/08 07:56:40;;;;;;;;;41.50;36.50;;;;;;;;4986071;28;45338;-77
2024/03/08 07:59:05;;;;;;;;;45.00;39.00;;;;;;;;5023255;28;45483;-78
2024/03/08 08:01:30;;;;;;;;;47.25;39.00;;;;;;;;5023526;28;45476;-76
2024/03/08 08:03:56;;;;;;;;;42.00;35.50;;;;;;;;5018365;28;46472;-76
2024/03/08 08:06:22;;;;;;;;;39.75;33.75;;;;;;;;5000628;28;45725;-76
2024/03/08 08:08:47;;;;;;;;;45.33;36.33;;;;;;;;5002372;28;45202;-78
2024/03/08 08:11:12;;;;;;;;;43.00;38.75;;;;;;;;5008701;28;45491;-79
2024/03/08 08:13:37;;;;;;;;;40.25;33.50;;;;;;;;5009110;28;45424;-77
2024/03/08 08:16:03;;;;;;;;;43.75;35.50;;;;;;;;4985155;28;45271;-78
2024/03/08 08:18:29;;;;;;;;;44.00;36.75;;;;;;;;5000583;28;45503;-77
2024/03/08 08:20:55;;;;;;;;;49.00;38.50;;;;;;;;5000060;28;45440;-77
2024/03/08 08:23:20;;;;;;;;;40.75;36.25;;;;;;;;5000835;28;45399;-76
2024/03/08 08:25:45;;;;;;;;;38.25;35.75;;;;;;;;5003675;28;45209;-78
2024/03/08 08:28:12;;;;;;;;;44.67;36.00;;;;;;;;5003438;28;45239;-78
2024/03/08 08:30:37;;;;;;;;;43.25;36.25;;;;;;;;5000962;28;45293;-79
2024/03/08 08:33:05;;;;;;;;;38.00;36.00;;;;;;;;4994590;28;48173;-75
2024/03/08 08:35:30;;;;;;;;;40.33;35.00;;;;;;;;4996402;28;45259;-75
2024/03/08 08:37:55;;;;;;;;;40.67;32.67;;;;;;;;5002363;28;45322;-75
2024/03/08 08:40:22;;;;;;;;;44.33;37.67;;;;;;;;5019784;28;44766;-76
2024/03/08 08:42:48;;;;;;;;;38.33;34.00;;;;;;;;4992803;28;46106;-75
2024/03/08 08:45:13;;;;;;;;;37.00;35.00;;;;;;;;5000047;28;45297;-74
2024/03/08 08:47:42;;;;;;;;;38.33;34.00;;;;;;;;5000606;28;45260;-75
2024/03/08 08:50:07;;;;;;;;;36.00;33.00;;;;;;;;5000103;28;45347;-75
2024/03/08 08:52:34;;;;;;;;;34.67;30.33;;;;;;;;5000106;28;45497;-75
2024/03/08 08:55:00;;;;;;;;;23.67;22.33;;;;;;;;5000098;28;45317;-75
2024/03/08 08:57:27;;;;;;;;;32.33;31.00;;;;;;;;5013109;28;45396;-75
2024/03/08 08:59:52;;;;;;;;;33.75;30.00;;;;;;;;5014083;28;46216;-75
2024/03/08 09:02:20;;;;;;;;;35.00;29.67;;;;;;;;5032626;28;45252;-75
2024/03/08 09:04:45;;;;;;;;;33.00;31.00;;;;;;;;5011316;28;45254;-74
2024/03/08 09:07:10;;;;;;;;;32.33;27.00;;;;;;;;5015471;28;45298;-75
2024/03/08 09:09:36;;;;;;;;;32.33;29.67;;;;;;;;5031808;28;45618;-75
2024/03/08 09:12:01;;;;;;;;;26.33;24.67;;;;;;;;5031727;28;45297;-75
2024/03/08 09:14:26;;;;;;;;;33.33;27.33;;;;;;;;5031370;28;45236;-76
2024/03/08 09:16:51;;;;;;;;;37.33;30.00;;;;;;;;5031726;28;45515;-75
2024/03/08 09:19:17;;;;;;;;;32.00;28.67;;;;;;;;5009616;28;47289;-75
2024/03/08 09:21:42;;;;;;;;;32.00;29.67;;;;;;;;4995301;28;47118;-75
2024/03/08 09:24:07;;;;;;;;;31.67;28.33;;;;;;;;4990181;28;45267;-75
2024/03/08 09:26:33;;;;;;;;;38.00;32.33;;;;;;;;4991793;28;45365;-75
2024/03/08 09:28:58;;;;;;;;;34.00;30.33;;;;;;;;5010982;28;45450;-74
2024/03/08 09:31:23;;;;;;;;;33.67;30.67;;;;;;;;5003444;28;45350;-76
2024/03/08 09:33:49;;;;;;;;;33.00;30.00;;;;;;;;4999448;28;45400;-76
2024/03/08 09:36:14;;;;;;;;;32.33;25.00;;;;;;;;4999802;28;45331;-75
2024/03/08 09:38:39;;;;;;;;;29.00;28.67;;;;;;;;4981711;28;46014;-76
2024/03/08 09:41:05;;;;;;;;;31.67;27.67;;;;;;;;4999472;28;45412;-76
2024/03/08 09:43:31;;;;;;;;;22.67;22.00;;;;;;;;4984107;28;46023;-76
2024/03/08 09:45:57;;;;;;;;;31.67;27.00;;;;;;;;5003288;28;45525;-76
2024/03/08 09:48:22;;;;;;;;;27.67;27.33;;;;;;;;5002756;28;45321;-76
2024/03/08 09:50:48;;;;;;;;;29.67;25.00;;;;;;;;5002736;28;45576;-76
2024/03/08 09:53:13;;;;;;;;;25.00;23.00;;;;;;;;5002919;28;45782;-76
2024/03/08 09:55:45;;;;;;;;;25.67;20.33;;;;;;;;5002867;28;45445;-76
2024/03/08 10:00:45;;;;;;;;;28.00;23.67;;;;;;;;5001590;28;45405;-75
2024/03/08 10:03:10;;;;;;;;;28.00;25.67;;;;;;;;5001275;28;45353;-76
2024/03/08 10:05:36;;;;;;;;;26.33;23.00;;;;;;;;5001568;28;45414;-76
2024/03/08 10:08:01;;;;;;;;;26.67;24.67;;;;;;;;5005742;28;45532;-75
2024/03/08 10:10:26;;;;;;;;;18.33;18.33;;;;;;;;5007432;28;45336;-76
2024/03/08 10:12:52;;;;;;;;;24.33;24.00;;;;;;;;5005574;28;45242;-76
2024/03/08 10:15:17;;;;;;;;;25.67;22.00;;;;;;;;5018864;28;45306;-77
2024/03/08 10:17:43;;;;;;;;;26.33;23.33;;;;;;;;4986753;28;47543;-76
2024/03/08 10:20:18;;;;;;;;;19.67;18.33;;;;;;;;5022071;28;45205;-76
2024/03/08 10:22:44;;;;;;;;;21.67;20.00;;;;;;;;5002843;28;45341;-76
2024/03/08 10:25:12;;;;;;;;;18.67;18.00;;;;;;;;5017671;28;45423;-76
2024/03/08 10:27:41;;;;;;;;;26.67;21.00;;;;;;;;4977291;28;46334;-77
2024/03/08 10:30:10;;;;;;;;;24.00;20.00;;;;;;;;4999103;28;45332;-78
2024/03/08 10:32:35;;;;;;;;;23.67;21.00;;;;;;;;5000420;28;45393;-76
2024/03/08 10:35:00;;;;;;;;;23.33;20.33;;;;;;;;5000980;28;45364;-76
2024/03/08 10:37:28;;;;;;;;;18.33;17.33;;;;;;;;5002036;28;45257;-76
2024/03/08 10:40:10;;;;;;;;;16.67;15.67;;;;;;;;4983828;28;48351;-76
2024/03/08 10:42:39;;;;;;;;;15.33;14.33;;;;;;;;5000115;28;46363;-76
2024/03/08 10:45:14;;;;;;;;;17.33;17.00;;;;;;;;5004133;28;45355;-76
2024/03/08 10:47:41;;;;;;;;;19.00;18.00;;;;;;;;5007922;28;45496;-77
2024/03/08 10:50:16;;;;;;;;;17.00;16.67;;;;;;;;5001552;28;45410;-76
2024/03/08 10:52:41;;;;;;;;;15.67;15.00;;;;;;;;5001322;28;45851;-77
2024/03/08 10:55:12;;;;;;;;;12.67;12.00;;;;;;;;5001379;28;45368;-76
2024/03/08 10:57:38;;;;;;;;;18.00;16.67;;;;;;;;5011556;28;45303;-76
2024/03/08 11:00:07;;;;;;;;;15.33;15.33;;;;;;;;5021505;28;45431;-77
2024/03/08 11:02:32;;;;;;;;;17.00;17.00;;;;;;;;5021880;28;45226;-76
2024/03/08 11:04:58;;;;;;;;;14.33;14.33;;;;;;;;5021677;28;45630;-76
2024/03/08 11:07:25;;;;;;;;;21.00;17.33;;;;;;;;5022166;28;45176;-76
2024/03/08 11:09:50;;;;;;;;;16.00;15.67;;;;;;;;5005620;28;47163;-77
2024/03/08 11:12:19;;;;;;;;;21.67;20.00;;;;;;;;5021303;28;45211;-76
2024/03/08 11:14:49;;;;;;;;;17.00;16.33;;;;;;;;5003721;28;45324;-76
2024/03/08 11:17:17;;;;;;;;;18.67;18.00;;;;;;;;5021352;28;45431;-76
2024/03/08 11:19:46;;;;;;;;;19.00;19.00;;;;;;;;5021272;28;45400;-76
2024/03/08 11:22:20;;;;;;;;;17.67;15.33;;;;;;;;4991105;28;45370;-76
2024/03/08 11:24:46;;;;;;;;;15.00;13.33;;;;;;;;5000728;28;45423;-76
2024/03/08 11:27:12;;;;;;;;;21.33;20.00;;;;;;;;5000468;28;45331;-76
2024/03/08 11:29:39;;;;;;;;;17.33;16.67;;;;;;;;5001199;28;46236;-76
2024/03/08 11:32:10;;;;;;;;;18.00;17.67;;;;;;;;5001223;28;45223;-76
2024/03/08 11:34:36;;;;;;;;;19.33;18.00;;;;;;;;4983091;28;45393;-76
2024/03/08 11:37:05;;;;;;;;;17.00;17.00;;;;;;;;4983438;28;46020;-77
2024/03/08 11:39:31;;;;;;;;;18.33;17.33;;;;;;;;5001220;28;46045;-76
2024/03/08 11:41:56;;;;;;;;;18.00;17.00;;;;;;;;5001100;28;45230;-76
2024/03/08 11:44:27;;;;;;;;;17.33;16.67;;;;;;;;5001452;28;45221;-76
2024/03/08 11:46:53;;;;;;;;;18.33;16.67;;;;;;;;5001195;28;45300;-76
2024/03/08 11:49:18;;;;;;;;;16.33;14.00;;;;;;;;5000832;28;46388;-76
2024/03/08 11:51:43;;;;;;;;;17.00;16.00;;;;;;;;4983340;28;45709;-77
2024/03/08 11:54:13;;;;;;;;;16.33;16.33;;;;;;;;5006247;28;45295;-76
2024/03/08 11:56:38;;;;;;;;;19.67;18.67;;;;;;;;5002623;28;45462;-76
2024/03/08 11:59:05;;;;;;;;;18.33;17.67;;;;;;;;5020769;28;46393;-77
2024/03/08 12:01:30;;;;;;;;;16.67;15.00;;;;;;;;5021135;28;45420;-77
2024/03/08 12:03:58;;;;;;;;;19.67;17.67;;;;;;;;5021606;28;45447;-76
2024/03/08 12:06:24;;;;;;;;;15.00;15.00;;;;;;;;4990017;28;46073;-76
2024/03/08 12:08:50;;;;;;;;;23.33;18.33;;;;;;;;4981142;28;46329;-76
2024/03/08 12:11:17;;;;;;;;;17.33;17.33;;;;;;;;4993268;28;45492;-76
2024/03/08 12:13:46;;;;;;;;;15.33;15.33;;;;;;;;5007925;28;45612;-76
2024/03/08 12:16:11;;;;;;;;;18.33;17.00;;;;;;;;4999989;28;45285;-76
2024/03/08 12:18:37;;;;;;;;;16.67;15.67;;;;;;;;4993566;28;45363;-77
2024/03/08 12:21:48;;;;;;;;;16.67;14.67;;;;;;;;5001456;28;45167;-76
2024/03/08 12:24:08;;;;;;;;;19.33;16.33;;;;;;;;4996121;28;45841;-76
2024/03/08 12:26:36;;;;;;;;;13.00;13.00;;;;;;;;4981945;28;46610;-77
2024/03/08 12:29:19;;;;;;;;;15.00;13.67;;;;;;;;4999517;28;46119;-77
2024/03/08 12:31:46;;;;;;;;;16.67;16.00;;;;;;;;4981824;28;45450;-76
2024/03/08 12:34:13;;;;;;;;;18.67;15.67;;;;;;;;4999770;28;45166;-75
2024/03/08 12:36:43;;;;;;;;;14.67;14.67;;;;;;;;4982032;28;45485;-75
2024/03/08 12:39:12;;;;;;;;;14.67;14.67;;;;;;;;4982379;28;47674;-75
2024/03/08 12:41:39;;;;;;;;;13.33;13.33;;;;;;;;4999583;28;45381;-74
2024/03/08 12:44:07;;;;;;;;;15.67;14.33;;;;;;;;4982264;28;45455;-76
2024/03/08 12:46:32;;;;;;;;;14.33;14.00;;;;;;;;4999859;28;45467;-75
2024/03/08 12:48:59;;;;;;;;;13.50;13.00;;;;;;;;4967673;28;47129;-75
2024/03/08 12:51:24;;;;;;;;;16.67;13.00;;;;;;;;4980643;28;45340;-76
2024/03/08 12:53:55;;;;;;;;;17.00;16.00;;;;;;;;4998147;28;45229;-75
2024/03/08 12:56:28;;;;;;;;;10.33;10.00;;;;;;;;5001220;28;45242;-76
2024/03/08 12:58:54;;;;;;;;;11.33;11.33;;;;;;;;4991701;28;47419;-75
2024/03/08 13:01:19;;;;;;;;;10.00;10.00;;;;;;;;5002984;28;45278;-76
2024/03/08 13:03:44;;;;;;;;;7.00;7.00;;;;;;;;4982445;28;45505;-75
2024/03/08 13:06:09;;;;;;;;;10.00;9.33;;;;;;;;4995164;28;45478;-76
2024/03/08 13:08:35;;;;;;;;;12.00;12.00;;;;;;;;4997774;28;46231;-76
2024/03/08 13:11:01;;;;;;;;;11.00;9.33;;;;;;;;4989947;28;45344;-74
2024/03/08 13:13:26;;;;;;;;;10.33;10.33;;;;;;;;4982331;28;45350;-75
2024/03/08 13:15:51;;;;;;;;;10.33;9.67;;;;;;;;5001692;28;45373;-75
2024/03/08 13:18:17;;;;;;;;;11.00;11.00;;;;;;;;4999688;28;45964;-75
2024/03/08 13:20:49;;;;;;;;;11.33;11.33;;;;;;;;4999572;28;45369;-76
2024/03/08 13:23:14;;;;;;;;;11.33;10.00;;;;;;;;4994842;28;45431;-76
2024/03/08 13:25:40;;;;;;;;;12.67;11.00;;;;;;;;4994948;28;45371;-75
2024/03/08 13:28:06;;;;;;;;;11.00;10.33;;;;;;;;4994368;28;45990;-76
2024/03/08 13:30:31;;;;;;;;;12.00;12.00;;;;;;;;4999202;28;45304;-75
2024/03/08 13:32:56;;;;;;;;;10.67;9.33;;;;;;;;5007798;28;45495;-75
2024/03/08 13:35:27;;;;;;;;;8.33;8.33;;;;;;;;4998980;28;45639;-75
2024/03/08 13:37:52;;;;;;;;;9.00;8.00;;;;;;;;4979336;28;48419;-75
2024/03/08 13:40:20;;;;;;;;;5.75;5.75;;;;;;;;4984637;28;45386;-76
2024/03/08 13:42:46;;;;;;;;;7.33;6.67;;;;;;;;4999665;28;45305;-75
2024/03/08 13:45:12;;;;;;;;;7.00;7.00;;;;;;;;5000537;28;45315;-75
2024/03/08 13:47:39;;;;;;;;;6.75;6.75;;;;;;;;4988400;28;47204;-75
2024/03/08 13:50:07;;;;;;;;;7.00;5.67;;;;;;;;5010301;28;45404;-76
2024/03/08 13:52:32;;;;;;;;;6.00;5.33;;;;;;;;5012976;28;44828;-75
2024/03/08 13:54:57;;;;;;;;;6.33;6.33;;;;;;;;4999956;28;45372;-76
2024/03/08 13:57:22;;;;;;;;;7.00;7.00;;;;;;;;5000083;28;45304;-76
2024/03/08 13:59:51;;;;;;;;;9.00;8.67;;;;;;;;4998653;28;45357;-76
2024/03/08 14:02:17;;;;;;;;;7.00;7.00;;;;;;;;4981284;28;45729;-76
2024/03/08 14:04:42;;;;;;;;;9.00;8.33;;;;;;;;4981807;28;47606;-77
2024/03/08 14:07:08;;;;;;;;;10.33;7.33;;;;;;;;4984058;28;47079;-77
2024/03/08 14:09:37;;;;;;;;;10.00;9.00;;;;;;;;5001749;28;45376;-76
2024/03/08 14:12:03;;;;;;;;;8.00;6.33;;;;;;;;4998542;28;45372;-76
2024/03/08 14:14:28;;;;;;;;;7.67;6.00;;;;;;;;4998423;28;45298;-75
2024/03/08 14:16:57;;;;;;;;;6.00;6.00;;;;;;;;4980884;28;47302;-76